Beaver Dam, WI (53916)

10:01 AM CST on February 13, 2016 (GMT -0600)
APRSWXNET | | Change Station
CLOSE
Current Station
Personal Weather Station
Location: Beaver Dam, WI
Elevation: 904 ft
Nearby Weather Stations

Elev 904 ft 43.45 °N, 88.83 °W | Updated 32 minutes ago

Clear
Clear
-1 °F
Feels Like -1 °F
N
3
Wind Variable Wind from NW
Gusts 8.0 mph

Today
High -- | Low -- °F
--% Chance of Precip.
Yesterday
High -- | Low -- °F
Precip. -- in
Pressure 30.58 in
Visibility 10.0 miles
Clouds Clear
Windchill -1 °F
Dew Point -9 °F
Humidity 67%
Rainfall in
Snow Depth Not available.
6:57 AM 5:22 PM
Waxing Crescent, 32% visible
METAR KUNU 131555Z AUTO 30007KT 10SM CLR M18/M24 A3058 RMK AO2 T11851244
Pressure 30.58 in
Visibility 10.0 miles
Clouds Clear
Windchill -1 °F
Dew Point -9 °F
Humidity 67%
Rainfall in
Snow Depth Not available.
6:57 AM 5:22 PM
Waxing Crescent, 32% visible
METAR KUNU 131555Z AUTO 30007KT 10SM CLR M18/M24 A3058 RMK AO2 T11851244

10-Day Weather Forecast

Almanac

Astronomy

Feb. 13, 2016 Rise Set
Actual Time
Civil Twilight
Nautical Twilight
Astronomical Twilight
Moon
Length of Visible Light
Length of Day
Tomorrow will be .
, % of the Moon is Illuminated

Today's Extremes

State Highs State Lows

Community

WunderPhotos

Upload Photos

1,892,595 photos uploaded!

WunderBlog® & News

Nearby

Air Quality

  Air Quality AQ Index Pollutant
Not available.

Snow Depth

Station Depth Elevation

Earthquake Activity

City Distance Mag. Time & Date
Minimum magnitude displayed is 2.5.

Coastal Water Temperatures

Place Temperature

Stations

Nearby Weather Stations

Station Location Temp. Windchill Dew Point Humidity Wind Precip. Elev Updated Type
                   

Watches & Warnings

There are currently no watches in effect.